createdAt,value
2019-03-18T00:00:33.958Z,91.80
2019-03-18T00:03:00.307Z,91.80
2019-03-18T00:05:26.983Z,91.50
2019-03-18T00:07:53.371Z,91.70
2019-03-18T00:10:20.153Z,91.90
2019-03-18T00:12:46.607Z,92.10
2019-03-18T00:15:13.102Z,91.90
2019-03-18T00:17:39.469Z,91.70
2019-03-18T00:20:08.335Z,91.90
2019-03-18T00:22:34.807Z,92.00
2019-03-18T00:25:01.164Z,91.90
2019-03-18T00:27:27.536Z,91.90
2019-03-18T00:29:53.798Z,92.00
2019-03-18T00:32:20.043Z,92.00
2019-03-18T00:34:46.543Z,92.20
2019-03-18T00:37:12.982Z,92.00
2019-03-18T00:39:39.249Z,92.10
2019-03-18T00:42:05.607Z,92.10
2019-03-18T00:44:31.835Z,92.20
2019-03-18T00:46:58.167Z,92.10
2019-03-18T00:49:24.435Z,92.20
2019-03-18T00:51:50.783Z,92.20
2019-03-18T00:54:17.168Z,92.20
2019-03-18T00:56:43.535Z,92.00
2019-03-18T00:59:09.994Z,92.10
2019-03-18T01:01:36.359Z,92.40
2019-03-18T01:04:03.004Z,92.10
2019-03-18T01:06:29.425Z,91.80
2019-03-18T01:08:55.776Z,91.80
2019-03-18T01:11:22.334Z,92.60
2019-03-18T01:13:48.802Z,92.20
2019-03-18T01:16:15.229Z,92.10
2019-03-18T01:18:41.518Z,92.10
2019-03-18T01:21:07.870Z,92.40
2019-03-18T01:23:34.339Z,92.50
2019-03-18T01:26:00.703Z,92.80
2019-03-18T01:28:27.202Z,92.80
2019-03-18T01:30:53.475Z,92.80
2019-03-18T01:33:19.853Z,92.90
2019-03-18T01:35:47.328Z,92.90
2019-03-18T01:38:13.625Z,92.80
2019-03-18T01:40:39.869Z,92.80
2019-03-18T01:43:06.194Z,92.80
2019-03-18T01:45:40.631Z,93.10
2019-03-18T01:48:00.649Z,92.70
2019-03-18T01:50:27.082Z,92.90
2019-03-18T01:52:53.506Z,92.90
2019-03-18T01:55:19.863Z,92.70
2019-03-18T01:57:46.217Z,92.60
2019-03-18T02:00:13.499Z,92.70
2019-03-18T02:02:39.938Z,92.60
2019-03-18T02:05:08.044Z,92.20
2019-03-18T02:07:34.420Z,92.10
2019-03-18T02:10:01.250Z,92.20
2019-03-18T02:12:27.623Z,92.00
2019-03-18T02:14:54.021Z,92.00
2019-03-18T02:17:20.384Z,92.10
2019-03-18T02:19:46.664Z,92.20
2019-03-18T02:22:13.155Z,92.60
2019-03-18T02:24:40.030Z,92.80
2019-03-18T02:27:06.421Z,92.60
2019-03-18T02:29:32.818Z,92.40
2019-03-18T02:31:59.185Z,92.10
2019-03-18T02:34:25.689Z,92.50
2019-03-18T02:36:52.074Z,92.60
2019-03-18T02:39:18.394Z,92.60
2019-03-18T02:41:44.632Z,92.50
2019-03-18T02:44:10.999Z,92.90
2019-03-18T02:46:37.421Z,93.20
2019-03-18T02:49:03.988Z,93.00
2019-03-18T02:51:30.279Z,92.70
2019-03-18T02:53:56.709Z,92.80
2019-03-18T02:56:22.977Z,92.70
2019-03-18T02:58:49.476Z,92.90
2019-03-18T03:01:15.885Z,92.90
2019-03-18T03:03:42.414Z,93.00
2019-03-18T03:06:08.699Z,93.20
2019-03-18T03:08:35.120Z,92.90
2019-03-18T03:11:01.433Z,92.90
2019-03-18T03:13:31.742Z,93.50
2019-03-18T03:16:02.588Z,93.60
2019-03-18T03:18:35.463Z,93.60
2019-03-18T09:20:29.071Z,99.90
2019-03-18T09:23:01.256Z,99.50
2019-03-18T09:25:29.995Z,99.10
2019-03-18T09:27:56.402Z,98.90
2019-03-18T09:30:23.791Z,98.60
2019-03-18T09:32:50.126Z,98.50
2019-03-18T09:35:19.317Z,96.40
2019-03-18T09:38:01.006Z,96.70
2019-03-18T09:40:31.817Z,95.40
2019-03-18T09:43:00.717Z,95.80
2019-03-18T09:45:27.154Z,95.80
2019-03-18T09:47:59.068Z,96.70
2019-03-18T09:50:35.789Z,95.90
2019-03-18T09:53:05.080Z,96.30
2019-03-18T09:55:31.867Z,95.40
2019-03-18T09:58:02.389Z,96.80
2019-03-18T10:00:28.595Z,95.90
2019-03-18T10:02:55.024Z,94.90
2019-03-18T10:05:21.255Z,95.40
2019-03-18T10:07:54.771Z,95.90
2019-03-18T10:10:21.290Z,95.20
2019-03-18T10:12:56.216Z,94.70
2019-03-18T10:15:22.489Z,93.80
2019-03-18T10:17:52.441Z,93.50
2019-03-18T10:20:21.678Z,92.50
2019-03-18T10:22:48.095Z,93.00
2019-03-18T10:25:19.108Z,94.40
2019-03-18T10:27:56.490Z,94.80
2019-03-18T10:30:23.250Z,95.40
2019-03-18T10:32:51.445Z,95.40
2019-03-18T10:35:23.428Z,97.20
2019-03-18T10:38:04.973Z,97.90
2019-03-18T10:40:31.381Z,97.30
2019-03-18T10:42:59.467Z,97.00
2019-03-18T10:45:29.733Z,95.50
2019-03-18T10:47:56.986Z,94.40
2019-03-18T10:50:27.332Z,93.50
2019-03-18T10:52:53.649Z,93.50
2019-03-18T10:55:23.996Z,92.80
2019-03-18T10:57:50.349Z,94.30
2019-03-18T11:00:17.537Z,94.60
2019-03-18T11:02:45.202Z,93.70
2019-03-18T11:05:12.715Z,94.20
2019-03-18T11:07:41.219Z,94.10
2019-03-18T11:10:12.470Z,92.90
2019-03-18T11:12:37.976Z,91.50
2019-03-18T11:15:10.791Z,91.80
2019-03-18T11:17:37.057Z,91.80
2019-03-18T11:20:06.803Z,91.10
2019-03-18T11:22:33.134Z,87.80
2019-03-18T11:24:59.794Z,91.30
2019-03-18T11:27:26.038Z,90.20
2019-03-18T11:29:52.543Z,84.50
2019-03-18T11:32:18.732Z,83.10
2019-03-18T11:34:47.209Z,79.70
2019-03-18T11:37:13.528Z,87.60
2019-03-18T11:39:43.103Z,85.30
2019-03-18T11:42:09.314Z,88.00
2019-03-18T11:44:37.425Z,87.50
2019-03-18T11:47:07.107Z,78.80
2019-03-18T11:49:39.542Z,73.90
2019-03-18T11:52:11.967Z,81.90
2019-03-18T11:54:39.464Z,76.20
2019-03-18T11:57:05.868Z,77.10
2019-03-18T11:59:32.189Z,77.60
2019-03-18T12:01:59.408Z,76.50
2019-03-18T12:04:25.672Z,76.50
2019-03-18T12:06:52.733Z,72.70
2019-03-18T12:09:19.206Z,65.60
2019-03-18T12:11:46.379Z,61.40
2019-03-18T12:14:16.430Z,60.50
2019-03-18T12:16:46.330Z,58.60
2019-03-18T12:19:14.727Z,58.30
2019-03-18T12:21:40.974Z,54.30
2019-03-18T12:24:10.490Z,52.60
2019-03-18T12:26:38.899Z,56.90
2019-03-18T12:29:05.417Z,55.10
2019-03-18T12:31:31.749Z,55.70
2019-03-18T12:33:58.312Z,55.70
2019-03-18T12:36:32.428Z,56.20
2019-03-18T12:39:08.884Z,55.80
2019-03-18T12:41:42.610Z,56.20
2019-03-18T12:44:09.044Z,54.30
2019-03-18T12:46:35.343Z,57.10
2019-03-18T12:49:01.609Z,52.60
2019-03-18T12:51:29.821Z,54.80
2019-03-18T12:53:56.612Z,55.20
2019-03-18T12:56:25.521Z,53.50
2019-03-18T12:58:54.771Z,55.20
2019-03-18T13:01:22.768Z,56.80
2019-03-18T13:04:00.275Z,52.20
2019-03-18T13:06:18.162Z,51.70
2019-03-18T13:08:53.310Z,53.80
2019-03-18T13:11:23.006Z,52.60
2019-03-18T13:13:50.806Z,55.20
2019-03-18T13:16:18.267Z,53.50
2019-03-18T13:18:44.697Z,53.60
2019-03-18T13:21:11.941Z,53.30
2019-03-18T13:23:38.327Z,54.00
2019-03-18T13:26:06.482Z,55.10
2019-03-18T13:28:32.909Z,58.50
2019-03-18T13:30:59.189Z,58.20
2019-03-18T13:33:31.064Z,56.90
2019-03-18T13:36:03.674Z,54.70
2019-03-18T13:38:30.017Z,56.40
2019-03-18T13:40:58.929Z,55.90
2019-03-18T13:43:27.963Z,56.10
2019-03-18T13:45:55.646Z,56.80
2019-03-18T13:48:25.006Z,55.60
2019-03-18T13:50:51.332Z,57.40
2019-03-18T13:53:17.635Z,57.60
2019-03-18T13:55:44.568Z,58.60
2019-03-18T13:58:13.011Z,60.90
2019-03-18T14:00:39.972Z,59.10
2019-03-18T14:03:06.425Z,58.70
2019-03-18T14:05:32.879Z,60.00
2019-03-18T14:08:01.143Z,60.10
2019-03-18T14:10:28.890Z,59.70
2019-03-18T14:12:55.063Z,59.40
2019-03-18T14:15:24.916Z,61.20
2019-03-18T14:17:51.409Z,60.60
2019-03-18T14:20:26.455Z,59.60
2019-03-18T14:23:00.236Z,58.00
2019-03-18T14:25:26.481Z,59.00
2019-03-18T14:27:53.723Z,59.20
2019-03-18T14:30:21.902Z,61.40
2019-03-18T14:32:55.405Z,61.30
2019-03-18T14:35:24.511Z,61.20
2019-03-18T14:37:51.420Z,61.30
2019-03-18T14:40:21.919Z,61.40
2019-03-18T14:42:55.102Z,60.50
2019-03-18T14:45:22.220Z,67.60
2019-03-18T14:47:48.521Z,78.30
2019-03-18T14:50:15.815Z,85.70
2019-03-18T14:52:47.291Z,89.40
2019-03-18T14:55:14.556Z,90.30
2019-03-18T14:57:46.530Z,90.50
2019-03-18T15:00:24.200Z,90.90
2019-03-18T15:02:53.420Z,90.30
2019-03-18T15:05:19.726Z,88.70
2019-03-18T15:07:50.758Z,89.20
2019-03-18T15:10:19.693Z,90.20
2019-03-18T15:12:47.092Z,91.60
2019-03-18T15:18:04.648Z,90.80
2019-03-18T15:20:32.449Z,90.10
2019-03-18T15:22:58.967Z,91.80
2019-03-18T15:25:32.955Z,91.50
2019-03-18T15:30:39.973Z,91.70
2019-03-18T15:33:06.287Z,92.30
2019-03-18T15:35:32.732Z,91.50
2019-03-18T15:37:59.179Z,90.90
2019-03-18T15:40:27.408Z,91.70
2019-03-18T15:42:54.137Z,91.70
2019-03-18T15:45:30.706Z,91.90
2019-03-18T15:48:00.533Z,91.30
2019-03-18T15:50:32.515Z,91.60
2019-03-18T15:53:01.970Z,91.60
2019-03-18T15:55:27.716Z,92.00
2019-03-18T15:57:56.151Z,92.10
2019-03-18T16:00:34.228Z,92.10
2019-03-18T16:03:04.253Z,92.80
2019-03-18T16:05:30.570Z,92.80
2019-03-18T16:07:56.776Z,92.80
2019-03-18T16:10:23.201Z,92.60
2019-03-18T16:12:53.955Z,92.80
2019-03-18T16:15:20.459Z,92.20
2019-03-18T16:17:51.518Z,91.70
2019-03-18T16:20:25.648Z,91.80
2019-03-18T16:22:53.706Z,91.90
2019-03-18T16:25:20.115Z,91.50
2019-03-18T16:27:46.852Z,91.70
2019-03-18T16:30:14.596Z,91.00
2019-03-18T16:32:43.191Z,90.90
2019-03-18T16:35:16.890Z,91.40
2019-03-18T16:37:44.498Z,90.30
2019-03-18T16:40:17.746Z,90.50
2019-03-18T16:42:44.093Z,90.10
2019-03-18T16:45:20.368Z,89.20
2019-03-18T16:47:46.833Z,88.40
2019-03-18T16:50:24.487Z,88.20
2019-03-18T16:52:52.916Z,89.20
2019-03-18T16:55:19.302Z,88.10
2019-03-18T16:57:45.733Z,88.10
2019-03-18T17:00:15.211Z,87.90
2019-03-18T17:02:41.817Z,88.10
2019-03-18T17:05:08.160Z,87.70
2019-03-18T17:07:34.334Z,87.40
2019-03-18T17:10:00.633Z,87.40
2019-03-18T17:12:26.999Z,87.20
2019-03-18T17:14:53.500Z,86.60
2019-03-18T17:17:20.743Z,86.20
2019-03-18T17:19:51.030Z,86.80
2019-03-18T17:22:26.476Z,87.40
2019-03-18T17:25:01.347Z,86.90
2019-03-18T17:27:27.682Z,86.80
2019-03-18T17:29:53.920Z,87.10
2019-03-18T17:32:25.994Z,86.80
2019-03-18T17:34:52.231Z,86.70
2019-03-18T17:37:21.170Z,86.30
2019-03-18T17:39:47.455Z,86.40
2019-03-18T17:42:13.582Z,86.10
2019-03-18T17:44:39.952Z,86.00
2019-03-18T17:47:07.517Z,86.40
2019-03-18T17:49:33.983Z,86.30
2019-03-18T17:52:00.237Z,86.70
2019-03-18T17:54:33.210Z,87.20
2019-03-18T17:57:07.793Z,87.80
2019-03-18T17:59:37.335Z,90.00
2019-03-18T18:02:07.159Z,90.10
2019-03-18T18:04:33.403Z,89.20
2019-03-18T18:09:53.164Z,88.80
2019-03-18T18:12:22.093Z,89.00
2019-03-18T18:14:48.295Z,90.10
2019-03-18T18:17:21.698Z,90.60
2019-03-18T18:19:48.211Z,89.60
2019-03-18T18:22:14.975Z,89.20
2019-03-18T18:24:41.204Z,88.90
2019-03-18T18:27:07.331Z,89.40
2019-03-18T18:29:35.806Z,89.50
2019-03-18T18:32:06.804Z,90.10
2019-03-18T18:34:33.288Z,90.00
2019-03-18T18:36:59.521Z,91.00
2019-03-18T18:39:25.882Z,91.60
2019-03-18T18:41:53.131Z,90.60
2019-03-18T18:44:19.761Z,90.30
2019-03-18T18:46:47.165Z,90.40
2019-03-18T18:49:13.375Z,91.00
2019-03-18T18:51:39.781Z,91.80
2019-03-18T18:54:06.208Z,92.40
2019-03-18T18:56:32.578Z,92.70
2019-03-18T18:59:01.724Z,93.10
2019-03-18T19:01:29.037Z,93.30
2019-03-18T19:03:56.018Z,93.10
2019-03-18T19:06:22.853Z,93.30
2019-03-18T19:08:49.202Z,93.40
2019-03-18T19:11:16.069Z,93.50
2019-03-18T19:13:49.671Z,93.50
2019-03-18T19:16:21.521Z,93.40
2019-03-18T19:18:53.140Z,93.60
2019-03-18T19:21:20.857Z,93.70
2019-03-18T19:23:51.820Z,94.10
2019-03-18T19:26:28.104Z,94.30
2019-03-18T19:28:56.709Z,94.60
2019-03-18T19:31:30.730Z,94.80
2019-03-18T19:33:57.710Z,94.70
2019-03-18T19:36:23.969Z,95.10
2019-03-18T19:38:53.064Z,94.70
2019-03-18T19:41:22.316Z,95.00
2019-03-18T19:43:50.617Z,95.30
2019-03-18T19:46:16.931Z,95.20
2019-03-18T19:48:45.008Z,94.90
2019-03-18T19:51:14.947Z,94.90
2019-03-18T19:53:49.429Z,95.10
2019-03-18T19:56:15.217Z,95.40
2019-03-18T19:58:50.008Z,95.10
2019-03-18T20:01:16.371Z,94.80
2019-03-18T20:03:42.586Z,94.70
2019-03-18T20:06:08.868Z,94.80
2019-03-18T20:08:37.424Z,94.90
2019-03-18T20:11:07.557Z,94.90
2019-03-18T20:14:03.543Z,94.80
2019-03-18T20:16:21.436Z,94.90
2019-03-18T20:18:50.226Z,95.30
2019-03-18T20:21:21.607Z,95.40
2019-03-18T20:24:00.344Z,95.60
2019-03-18T20:26:19.601Z,95.80
2019-03-18T20:28:46.760Z,95.80
2019-03-18T20:31:13.008Z,96.00
2019-03-18T20:33:44.958Z,96.10
2019-03-18T20:36:11.699Z,96.20
2019-03-18T20:38:38.424Z,96.10
2019-03-18T20:41:04.738Z,96.30
2019-03-18T20:43:32.515Z,96.40
2019-03-18T20:45:58.764Z,96.40
2019-03-18T20:48:30.297Z,96.30
2019-03-18T20:50:56.841Z,96.20
2019-03-18T20:53:23.450Z,96.50
2019-03-18T20:55:49.772Z,96.30
2019-03-18T20:58:21.287Z,95.90
2019-03-18T21:00:53.018Z,95.30
2019-03-18T21:03:19.769Z,95.10
2019-03-18T21:05:52.501Z,95.40
2019-03-18T21:08:30.953Z,94.80
2019-03-18T21:10:57.324Z,94.90
2019-03-18T21:13:23.965Z,94.90
2019-03-18T21:15:50.168Z,95.00
2019-03-18T21:18:16.462Z,95.20
2019-03-18T21:20:42.840Z,95.70
2019-03-18T21:23:09.086Z,95.00
2019-03-18T21:25:35.458Z,94.00
2019-03-18T21:28:01.774Z,93.80
2019-03-18T21:30:28.116Z,94.10
2019-03-18T21:32:54.447Z,94.10
2019-03-18T21:35:20.835Z,93.20
2019-03-18T21:37:47.169Z,92.90
2019-03-18T21:40:17.339Z,93.20
2019-03-18T21:42:43.903Z,92.80
2019-03-18T21:45:17.447Z,92.90
2019-03-18T21:47:43.871Z,92.80
2019-03-18T21:50:11.127Z,92.60
2019-03-18T21:52:38.217Z,92.90
2019-03-18T21:55:05.071Z,92.90
2019-03-18T21:57:31.297Z,92.80
2019-03-18T21:59:57.694Z,92.50
2019-03-18T22:02:24.024Z,92.70
2019-03-18T22:04:50.157Z,93.00
2019-03-18T22:07:16.293Z,93.30
2019-03-18T22:09:42.534Z,93.40
2019-03-18T22:12:08.954Z,93.70
2019-03-18T22:14:35.373Z,94.70
2019-03-18T22:17:01.664Z,94.50
2019-03-18T22:19:27.789Z,94.20
2019-03-18T22:21:53.922Z,94.50
2019-03-18T22:24:20.172Z,95.00
2019-03-18T22:26:46.786Z,95.40
2019-03-18T22:29:13.155Z,95.70
2019-03-18T22:31:39.393Z,94.80
2019-03-18T22:34:05.626Z,94.20
2019-03-18T22:36:32.129Z,94.80
2019-03-18T22:38:58.391Z,95.40
2019-03-18T22:41:24.615Z,95.40
2019-03-18T22:43:50.795Z,95.50
2019-03-18T22:46:17.031Z,94.50
2019-03-18T22:48:43.251Z,93.80
2019-03-18T22:51:09.533Z,93.50
2019-03-18T22:53:35.798Z,93.50
2019-03-18T22:56:02.143Z,93.30
2019-03-18T22:58:28.391Z,93.50
2019-03-18T23:00:59.155Z,93.70
2019-03-18T23:03:25.389Z,94.00
2019-03-18T23:05:51.714Z,94.10
2019-03-18T23:08:18.080Z,94.40
2019-03-18T23:10:44.399Z,94.90
2019-03-18T23:13:10.651Z,94.60
2019-03-18T23:15:37.074Z,94.40
2019-03-18T23:18:03.480Z,94.20
2019-03-18T23:20:29.918Z,94.40
2019-03-18T23:22:56.198Z,94.70
2019-03-18T23:25:22.437Z,95.00
2019-03-18T23:27:48.683Z,94.10
2019-03-18T23:30:15.081Z,93.90
2019-03-18T23:32:41.447Z,94.30
2019-03-18T23:35:09.724Z,94.90
2019-03-18T23:37:35.889Z,95.80
2019-03-18T23:40:04.484Z,95.50
2019-03-18T23:42:30.833Z,94.60
2019-03-18T23:44:56.953Z,94.30
2019-03-18T23:47:23.253Z,94.20
2019-03-18T23:49:49.578Z,94.30
2019-03-18T23:52:15.950Z,94.40
2019-03-18T23:54:42.092Z,94.50
2019-03-18T23:57:08.326Z,94.80
2019-03-18T23:59:34.455Z,94.70
